ANZ6029 KIAH-NZAA
Flight info
| Callsign | ANZ6029 |
|---|---|
| Flight time | N/A |
| Altitude | 30000 |
| Route | RITAA7 CRP DCT SUTOL J29 MTY DCT OTEKA UT148 MAVED/N0503F320 UT148 KENDU DCT 20N106W 1815N10747W 15N111W 10N116W 0601N12000W 05N121W 0330N12230W 00N126W/N0497F340 DCT TARAO DCT 05S131W 10S135W 15S139W DCT INVID DCT 20S143W/N0487F360 25S147W 30S152W 35S160W/N0477F380 37S170W 37S180E DCT IBESO |
| Aircraft | B77W/H-SDE1E2E3FGHIJ2J3J4J5M1RWXY/LB1D1 |
Departure
| Time | N/A |
|---|---|
| Airport | George Bush Intercontinental Airport (KIAH) |
Arrival
| Time | 2026-05-04 07:05 |
|---|---|
| Airport | Auckland International Airport (NZAA) |
| Time | Latitude | Longitude | Altitude | Speed | Heading |
|---|---|---|---|---|---|
| 2026-05-04 06:20 | -37.00693 | -179.83210 | 38550 ft | 460 kts | 272° |
| 2026-05-04 06:21 | -37.00037 | -179.99125 | 38550 ft | 460 kts | 273° |
| 2026-05-04 06:22 | -36.99858 | 179.92881 | 38547 ft | 459 kts | 270° |
| 2026-05-04 06:25 | -36.99496 | 179.37056 | 38545 ft | 458 kts | 271° |
| 2026-05-04 06:26 | -36.99409 | 179.29143 | 38548 ft | 458 kts | 271° |
| 2026-05-04 06:26 | -36.99317 | 179.21163 | 38547 ft | 458 kts | 271° |
| 2026-05-04 06:27 | -36.99063 | 179.01241 | 38549 ft | 458 kts | 271° |
| 2026-05-04 06:28 | -36.99068 | 178.93328 | 38550 ft | 458 kts | 267° |
| 2026-05-04 06:28 | -36.99624 | 178.85391 | 38544 ft | 458 kts | 264° |
| 2026-05-04 06:29 | -37.00290 | 178.77465 | 38547 ft | 458 kts | 264° |
| 2026-05-04 06:29 | -37.00896 | 178.69532 | 38544 ft | 458 kts | 265° |
| 2026-05-04 06:30 | -37.01448 | 178.61645 | 38550 ft | 458 kts | 265° |
| 2026-05-04 06:30 | -37.01983 | 178.53707 | 38549 ft | 458 kts | 265° |
| 2026-05-04 06:31 | -37.02513 | 178.45765 | 38545 ft | 458 kts | 265° |
| 2026-05-04 06:31 | -37.03040 | 178.37821 | 38544 ft | 458 kts | 265° |
| 2026-05-04 06:33 | -37.05095 | 178.06104 | 38546 ft | 458 kts | 266° |
| 2026-05-04 06:34 | -37.05596 | 177.98158 | 38546 ft | 458 kts | 266° |
| 2026-05-04 06:34 | -37.06089 | 177.90261 | 38550 ft | 458 kts | 266° |
| 2026-05-04 06:36 | -37.08020 | 177.58465 | 38546 ft | 458 kts | 266° |
| 2026-05-04 06:37 | -37.08486 | 177.50566 | 38550 ft | 458 kts | 266° |
| 2026-05-04 06:37 | -37.08950 | 177.42618 | 38546 ft | 458 kts | 266° |
| 2026-05-04 06:38 | -37.09409 | 177.34663 | 38548 ft | 458 kts | 266° |
| 2026-05-04 06:40 | -37.11190 | 177.02859 | 38541 ft | 458 kts | 266° |
| 2026-05-04 06:40 | -37.11406 | 176.98900 | 38370 ft | 455 kts | 267° |
| 2026-05-04 06:40 | -37.11621 | 176.94945 | 38007 ft | 455 kts | 267° |
| 2026-05-04 06:41 | -37.11834 | 176.90977 | 37608 ft | 457 kts | 267° |
| 2026-05-04 06:41 | -37.12046 | 176.87010 | 37206 ft | 458 kts | 267° |
| 2026-05-04 06:41 | -37.12258 | 176.83030 | 36833 ft | 458 kts | 267° |
| 2026-05-04 06:41 | -37.12468 | 176.79048 | 36481 ft | 457 kts | 267° |
| 2026-05-04 06:42 | -37.12676 | 176.75079 | 36137 ft | 457 kts | 267° |
| 2026-05-04 06:42 | -37.12881 | 176.71158 | 35791 ft | 456 kts | 267° |
| 2026-05-04 06:42 | -37.13086 | 176.67196 | 35423 ft | 456 kts | 268° |
| 2026-05-04 06:44 | -37.14475 | 176.39699 | 30644 ft | 436 kts | 268° |
| 2026-05-04 06:44 | -37.14658 | 176.35979 | 30001 ft | 432 kts | 268° |
| 2026-05-04 06:44 | -37.14841 | 176.32244 | 29421 ft | 427 kts | 268° |
| 2026-05-04 06:45 | -37.15020 | 176.28553 | 28866 ft | 422 kts | 268° |
| 2026-05-04 06:45 | -37.15196 | 176.24905 | 28313 ft | 418 kts | 268° |
| 2026-05-04 06:45 | -37.15369 | 176.21286 | 27764 ft | 414 kts | 268° |
| 2026-05-04 06:45 | -37.15539 | 176.17700 | 27237 ft | 411 kts | 268° |
| 2026-05-04 06:46 | -37.15708 | 176.14135 | 26707 ft | 409 kts | 268° |
| 2026-05-04 06:46 | -37.15874 | 176.10587 | 26185 ft | 407 kts | 268° |
| 2026-05-04 06:46 | -37.16039 | 176.07058 | 25665 ft | 405 kts | 268° |
| 2026-05-04 06:46 | -37.16200 | 176.03578 | 25170 ft | 405 kts | 268° |
| 2026-05-04 06:48 | -37.17346 | 175.78222 | 21330 ft | 412 kts | 268° |
| 2026-05-04 06:48 | -37.17503 | 175.74659 | 20804 ft | 409 kts | 268° |
| 2026-05-04 06:49 | -37.17656 | 175.71155 | 20302 ft | 406 kts | 268° |
| 2026-05-04 06:50 | -37.18684 | 175.46951 | 16640 ft | 388 kts | 268° |
| 2026-05-04 06:51 | -37.18823 | 175.43586 | 16138 ft | 385 kts | 268° |
| 2026-05-04 06:51 | -37.18961 | 175.40242 | 15724 ft | 381 kts | 268° |
| 2026-05-04 06:51 | -37.19095 | 175.36940 | 15579 ft | 387 kts | 268° |
| 2026-05-04 06:51 | -37.19232 | 175.33576 | 15550 ft | 384 kts | 268° |
| 2026-05-04 06:52 | -37.19367 | 175.30248 | 15537 ft | 381 kts | 268° |
| 2026-05-04 06:52 | -37.19656 | 175.26950 | 15543 ft | 381 kts | 262° |
| 2026-05-04 06:52 | -37.20155 | 175.23676 | 15548 ft | 383 kts | 259° |
| 2026-05-04 06:52 | -37.20715 | 175.20410 | 15548 ft | 384 kts | 259° |
| 2026-05-04 06:53 | -37.21275 | 175.17129 | 15550 ft | 385 kts | 259° |
| 2026-05-04 06:53 | -37.21815 | 175.13844 | 15452 ft | 383 kts | 259° |
| 2026-05-04 06:53 | -37.22329 | 175.10617 | 15112 ft | 368 kts | 260° |
| 2026-05-04 06:53 | -37.22802 | 175.07572 | 14965 ft | 343 kts | 260° |
| 2026-05-04 06:54 | -37.23235 | 175.04749 | 14718 ft | 317 kts | 260° |
| 2026-05-04 06:54 | -37.23633 | 175.02132 | 14229 ft | 304 kts | 260° |
| 2026-05-04 06:54 | -37.24023 | 174.99555 | 13503 ft | 298 kts | 260° |
| 2026-05-04 06:54 | -37.24407 | 174.97007 | 12692 ft | 297 kts | 260° |
| 2026-05-04 06:55 | -37.24793 | 174.94454 | 11815 ft | 299 kts | 260° |
| 2026-05-04 06:55 | -37.25181 | 174.91884 | 10935 ft | 301 kts | 260° |
| 2026-05-04 06:55 | -37.25571 | 174.89300 | 10085 ft | 301 kts | 260° |
| 2026-05-04 06:55 | -37.25959 | 174.86727 | 9283 ft | 298 kts | 260° |
| 2026-05-04 06:56 | -37.26342 | 174.84205 | 8691 ft | 289 kts | 260° |
| 2026-05-04 06:57 | -37.21334 | 174.69200 | 6457 ft | 278 kts | 301° |
| 2026-05-04 06:58 | -37.20391 | 174.67089 | 6129 ft | 277 kts | 301° |
| 2026-05-04 06:58 | -37.19463 | 174.65007 | 5801 ft | 277 kts | 301° |
| 2026-05-04 06:58 | -37.18522 | 174.62901 | 5480 ft | 277 kts | 301° |
| 2026-05-04 06:58 | -37.17589 | 174.60811 | 5282 ft | 268 kts | 301° |
| 2026-05-04 06:59 | -37.16701 | 174.58850 | 5112 ft | 249 kts | 305° |
| 2026-05-04 06:59 | -37.15598 | 174.57262 | 4995 ft | 241 kts | 322° |
| 2026-05-04 06:59 | -37.14199 | 174.56205 | 4668 ft | 228 kts | 342° |
| 2026-05-04 06:59 | -37.12745 | 174.55595 | 4406 ft | 215 kts | 345° |
| 2026-05-04 07:01 | -37.06169 | 174.60668 | 2760 ft | 172 kts | 69° |
| 2026-05-04 07:01 | -37.05766 | 174.62057 | 2503 ft | 167 kts | 71° |
| 2026-05-04 07:02 | -37.05393 | 174.63398 | 2269 ft | 159 kts | 71° |
| 2026-05-04 07:02 | -37.05046 | 174.64660 | 2058 ft | 148 kts | 72° |
| 2026-05-04 07:02 | -37.04720 | 174.65844 | 1872 ft | 147 kts | 71° |
| 2026-05-04 07:02 | -37.04388 | 174.67050 | 1673 ft | 145 kts | 72° |
| 2026-05-04 07:03 | -37.04066 | 174.68224 | 1504 ft | 141 kts | 71° |
| 2026-05-04 07:03 | -37.03750 | 174.69371 | 1316 ft | 138 kts | 72° |
| 2026-05-04 07:03 | -37.03438 | 174.70505 | 1124 ft | 137 kts | 72° |
| 2026-05-04 07:03 | -37.03127 | 174.71634 | 931 ft | 138 kts | 72° |
| 2026-05-04 07:04 | -37.02811 | 174.72773 | 741 ft | 140 kts | 72° |
| 2026-05-04 07:04 | -37.02492 | 174.73925 | 583 ft | 140 kts | 72° |
| 2026-05-04 07:04 | -37.02180 | 174.75093 | 401 ft | 142 kts | 71° |
| 2026-05-04 07:04 | -37.01857 | 174.76258 | 208 ft | 140 kts | 73° |
| 2026-05-04 07:05 | -37.01544 | 174.77390 | 42 ft | 139 kts | 72° |
| 2026-05-04 07:05 | -37.01262 | 174.78423 | 31 ft | 106 kts | 71° |
| 2026-05-04 07:05 | -37.01071 | 174.79115 | 30 ft | 62 kts | 71° |
| 2026-05-04 07:05 | -37.00963 | 174.79465 | 30 ft | 33 kts | 62° |
| 2026-05-04 07:06 | -37.00793 | 174.79710 | 30 ft | 9 kts | 40° |
| 2026-05-04 07:06 | -37.00741 | 174.79721 | 30 ft | 6 kts | 326° |
| 2026-05-04 07:06 | -37.00730 | 174.79667 | 30 ft | 7 kts | 270° |
| 2026-05-04 07:07 | -37.00741 | 174.79604 | 30 ft | 8 kts | 253° |
| 2026-05-04 07:08 | -37.00937 | 174.78898 | 30 ft | 14 kts | 251° |
| 2026-05-04 07:09 | -37.00969 | 174.78781 | 30 ft | 14 kts | 251° |
| 2026-05-04 07:09 | -37.01002 | 174.78663 | 30 ft | 14 kts | 251° |
| 2026-05-04 07:09 | -37.01034 | 174.78546 | 30 ft | 14 kts | 251° |
| 2026-05-04 07:09 | -37.01042 | 174.78432 | 30 ft | 13 kts | 292° |
| 2026-05-04 07:10 | -37.00985 | 174.78370 | 30 ft | 9 kts | 341° |
| 2026-05-04 07:10 | -37.00922 | 174.78363 | 30 ft | 10 kts | 5° |
| 2026-05-04 07:12 | -37.00761 | 174.78273 | 30 ft | 0 kts | 298° |